Portada
METAR-TAF:

METAR-TAF

Aeroports :

Luganville, Illa Espíritu Santo, Vanuatu

latitud: 15-31S, longitud: 167-13E, altitud: 41 m

Observació

L'informe es va fer fa 4 hores i 35 minuts, a les 15:00 UTC
Vent 3 kt del Nord-Oest
Temperatura 24°C
Humitat 100%
Pressió 1006 hPa
Visibilitat 10 km o més
Núvols disperses a una alçada de 2000 ft

METAR: NVSS 291500Z 32003KT 9999 SCT020 24/24 Q1006

Hora: 06:35 (19:35 UTC)

Pronòstic

L'informe es va fer fa 3 hores i 35 minuts, a les 16:00 UTC
Pronòstic vàlid del 29 a les 18 UTC al 30 a les 18 UTC
Vent 5 kt del Oest
Visibilitat 10 km o més
Núvols disperses a una alçada de 2000 ft
Probabilitat 40%
entre IN i TE UTC
Visibilitat: 8000 m
Escasses núvols a una alçada de 1000 ft
Cel ennuvolat a una alçada de 1800 ft
Cel cobert a una alçada de 3800 ft
xàfecs de pluja

TAF: NVSS 291600Z 2918/3018 27005KT 9999 SCT020 PROB40 INTER 2918/2924 8000 SHRA FEW010 BKN018 OVC038

Observacions i pronòstics meteorològics de més de 4000 aeroports (METAR i TAF).

Les estacions disponibles són els punts grocs i vermells al mapa.

Posi el ratolí al punt desitjat per veure el nom de l'estació.

Feu clic per veure les observacions i els pronòstics meteorològics.

Per canviar el mapa: feu clic els botons verds amb una creu de color negre per apropar; al botó verd amb un guió per allunyar la imatge; o en les fletxes verdes per a mapes adjacents.


METAR-TAF: